Time;durP1;ratioP1;P1;durP2;ratioP2;P2;SDS_P1;SDS_P2;PMS_P1;PMS_P2;Temp;Humidity;BMP_temperature;BMP_pressure;BME280_temperature;BME280_humidity;BME280_pressure;Samples;Min_cycle;Max_cycle;Signal;HPM_P1;HPM_P2
2023/01/01 00:00:43;;;;;;;130.38;71.22;;;;;;;;;;4924265;28;20059;-69
2023/01/01 00:03:08;;;;;;;129.93;73.10;;;;;;;;;;4924432;28;20088;-67
2023/01/01 00:05:37;;;;;;;110.47;59.28;;;;;;;;;;4924764;28;20082;-67
2023/01/01 00:08:03;;;;;;;119.40;63.45;;;;;;;;;;4923289;29;20055;-67
2023/01/01 00:10:28;;;;;;;131.27;69.60;;;;;;;;;;4924235;28;20039;-68
2023/01/01 00:12:57;;;;;;;131.75;71.28;;;;;;;;;;4924176;29;20074;-66
2023/01/01 00:15:24;;;;;;;133.15;64.25;;;;;;;;;;4924607;29;20164;-69
2023/01/01 00:17:49;;;;;;;130.95;75.55;;;;;;;;;;4922692;28;20556;-68
2023/01/01 00:20:15;;;;;;;135.88;70.53;;;;;;;;;;4924995;28;20170;-68
2023/01/01 00:22:41;;;;;;;138.18;69.07;;;;;;;;;;4923153;28;20051;-68
2023/01/01 00:25:07;;;;;;;121.30;65.50;;;;;;;;;;4924618;29;20697;-68
2023/01/01 00:27:33;;;;;;;104.22;53.97;;;;;;;;;;4923822;29;20106;-67
2023/01/01 00:29:58;;;;;;;63.75;33.88;;;;;;;;;;4939112;28;20051;-68
2023/01/01 00:32:24;;;;;;;84.70;43.17;;;;;;;;;;4924867;28;20173;-68
2023/01/01 00:34:49;;;;;;;83.47;43.05;;;;;;;;;;4924131;28;20051;-67
2023/01/01 00:37:18;;;;;;;65.55;32.97;;;;;;;;;;4938873;28;20040;-67
2023/01/01 00:39:44;;;;;;;61.03;32.50;;;;;;;;;;4925166;28;20083;-67
2023/01/01 00:42:09;;;;;;;49.45;27.73;;;;;;;;;;4925468;28;20130;-67
2023/01/01 00:44:35;;;;;;;41.35;25.25;;;;;;;;;;4923697;29;20626;-67
2023/01/01 00:47:00;;;;;;;36.95;21.52;;;;;;;;;;4924980;28;20055;-67
2023/01/01 00:49:26;;;;;;;39.53;21.20;;;;;;;;;;4924284;29;20048;-67
2023/01/01 00:51:52;;;;;;;32.65;19.10;;;;;;;;;;4923685;29;20051;-66
2023/01/01 00:54:18;;;;;;;25.33;14.88;;;;;;;;;;4924903;28;20106;-67
2023/01/01 00:56:43;;;;;;;29.38;16.38;;;;;;;;;;4923525;28;20042;-66
2023/01/01 00:59:08;;;;;;;26.42;15.82;;;;;;;;;;4924106;28;20055;-67
2023/01/01 01:01:34;;;;;;;24.23;14.63;;;;;;;;;;4923024;28;20730;-67
2023/01/01 01:04:02;;;;;;;29.08;14.35;;;;;;;;;;4924782;28;20047;-66
2023/01/01 01:06:27;;;;;;;26.10;15.20;;;;;;;;;;4923249;28;20055;-67
2023/01/01 01:08:53;;;;;;;25.80;15.68;;;;;;;;;;4922640;28;20051;-67
2023/01/01 01:11:21;;;;;;;24.33;14.77;;;;;;;;;;4921791;28;20497;-67
2023/01/01 01:13:49;;;;;;;28.17;14.48;;;;;;;;;;4923045;28;20099;-67
2023/01/01 01:16:18;;;;;;;32.20;18.92;;;;;;;;;;4923331;28;20055;-66
2023/01/01 01:18:44;;;;;;;18.77;11.98;;;;;;;;;;4912898;28;20130;-64
2023/01/01 01:21:13;;;;;;;20.60;12.93;;;;;;;;;;4924515;28;20512;-64
2023/01/01 01:23:38;;;;;;;27.35;16.05;;;;;;;;;;4922663;28;20051;-64
2023/01/01 01:26:16;;;;;;;38.88;20.42;;;;;;;;;;4926056;29;20039;-64
2023/01/01 01:28:42;;;;;;;45.50;25.98;;;;;;;;;;4917962;28;20044;-65
2023/01/01 01:31:08;;;;;;;40.25;23.88;;;;;;;;;;4924705;28;20051;-66
2023/01/01 01:33:34;;;;;;;53.00;29.08;;;;;;;;;;4925735;28;20745;-66
2023/01/01 01:36:01;;;;;;;53.95;31.00;;;;;;;;;;4925954;28;20055;-66
2023/01/01 01:38:26;;;;;;;45.28;25.60;;;;;;;;;;4924724;29;20122;-66
2023/01/01 01:40:51;;;;;;;33.30;20.15;;;;;;;;;;4923923;28;20044;-66
2023/01/01 01:43:22;;;;;;;29.88;17.05;;;;;;;;;;4923938;29;20126;-65
2023/01/01 01:45:48;;;;;;;25.23;14.63;;;;;;;;;;4939853;28;20967;-67
2023/01/01 01:48:14;;;;;;;21.23;12.88;;;;;;;;;;4924820;28;20059;-65
2023/01/01 01:50:41;;;;;;;23.92;13.38;;;;;;;;;;4924190;28;20047;-66
2023/01/01 01:53:11;;;;;;;21.30;11.07;;;;;;;;;;4924499;28;20122;-66
2023/01/01 01:55:42;;;;;;;23.88;14.40;;;;;;;;;;4925917;28;20043;-67
2023/01/01 01:58:10;;;;;;;22.37;13.57;;;;;;;;;;4926078;29;20178;-67
2023/01/01 02:00:35;;;;;;;22.83;13.88;;;;;;;;;;4924935;28;20062;-66
2023/01/01 02:03:05;;;;;;;26.42;15.27;;;;;;;;;;4925141;28;20051;-66
2023/01/01 02:05:32;;;;;;;26.45;14.77;;;;;;;;;;4925319;28;20055;-66
2023/01/01 02:07:58;;;;;;;23.58;14.13;;;;;;;;;;4925231;28;20066;-66
2023/01/01 02:10:26;;;;;;;23.42;13.77;;;;;;;;;;4925444;29;20091;-66
2023/01/01 02:12:51;;;;;;;21.60;12.07;;;;;;;;;;4925090;28;20055;-66
2023/01/01 02:15:16;;;;;;;22.52;12.52;;;;;;;;;;4924946;28;20094;-65
2023/01/01 02:18:00;;;;;;;19.63;11.38;;;;;;;;;;4925020;28;20076;-67
2023/01/01 02:20:35;;;;;;;21.13;11.15;;;;;;;;;;4925546;28;20147;-66
2023/01/01 02:23:44;;;;;;;22.38;11.82;;;;;;;;;;4929518;29;20091;-67
2023/01/01 02:26:24;;;;;;;18.75;11.07;;;;;;;;;;4940017;29;20043;-67
2023/01/01 02:28:58;;;;;;;17.67;10.35;;;;;;;;;;4915423;28;20118;-68
2023/01/01 02:31:29;;;;;;;19.00;11.05;;;;;;;;;;4925885;28;20044;-67
2023/01/01 02:34:00;;;;;;;14.20;9.35;;;;;;;;;;4925865;28;20142;-66
2023/01/01 02:36:28;;;;;;;17.97;9.83;;;;;;;;;;4925902;28;20049;-67
2023/01/01 02:38:56;;;;;;;16.83;9.05;;;;;;;;;;4925449;28;20290;-67
2023/01/01 02:41:27;;;;;;;16.83;10.10;;;;;;;;;;4940796;29;20141;-67
2023/01/01 02:43:53;;;;;;;16.98;9.80;;;;;;;;;;4940927;29;20164;-67
2023/01/01 02:46:18;;;;;;;17.17;10.27;;;;;;;;;;4925302;28;20134;-69
2023/01/01 02:48:47;;;;;;;20.50;10.68;;;;;;;;;;4925248;28;20051;-66
2023/01/01 02:51:15;;;;;;;20.02;10.18;;;;;;;;;;4926214;28;20040;-66
2023/01/01 02:53:51;;;;;;;17.80;10.98;;;;;;;;;;4920369;28;20052;-66
2023/01/01 02:56:36;;;;;;;18.30;9.80;;;;;;;;;;4939526;29;20055;-66
2023/01/01 03:02:15;;;;;;;20.65;10.52;;;;;;;;;;4940564;28;20095;-65
2023/01/01 03:04:56;;;;;;;19.40;10.65;;;;;;;;;;4940148;28;20063;-68
2023/01/01 03:07:34;;;;;;;19.10;10.32;;;;;;;;;;4925186;28;20082;-66
2023/01/01 03:10:03;;;;;;;21.05;10.73;;;;;;;;;;4924868;28;20432;-66
2023/01/01 03:12:57;;;;;;;16.83;10.15;;;;;;;;;;4924070;28;20489;-66
2023/01/01 03:15:45;;;;;;;13.27;8.85;;;;;;;;;;4934259;28;20523;-66
2023/01/01 03:18:37;;;;;;;16.98;10.40;;;;;;;;;;4923045;28;20591;-65
2023/01/01 03:21:06;;;;;;;18.33;10.70;;;;;;;;;;4935795;28;20054;-65
2023/01/01 03:23:45;;;;;;;21.45;11.20;;;;;;;;;;4924118;28;20103;-66
2023/01/01 03:26:13;;;;;;;18.52;11.57;;;;;;;;;;4928499;28;20059;-66
2023/01/01 03:28:50;;;;;;;18.42;11.02;;;;;;;;;;4928310;28;20051;-67
2023/01/01 03:31:20;;;;;;;18.70;10.98;;;;;;;;;;4927537;28;20066;-65
2023/01/01 03:33:50;;;;;;;18.23;11.50;;;;;;;;;;4929176;28;20047;-66
2023/01/01 03:36:23;;;;;;;22.13;12.45;;;;;;;;;;4928725;28;20134;-66
2023/01/01 03:38:56;;;;;;;22.08;12.93;;;;;;;;;;4926865;28;20059;-66
2023/01/01 03:41:21;;;;;;;23.25;13.93;;;;;;;;;;4927242;28;20075;-65
2023/01/01 03:43:56;;;;;;;22.45;12.95;;;;;;;;;;4927453;28;20113;-66
2023/01/01 03:46:26;;;;;;;21.33;13.27;;;;;;;;;;4926466;29;20075;-65
2023/01/01 03:48:55;;;;;;;27.50;13.55;;;;;;;;;;4925645;28;20512;-65
2023/01/01 03:51:24;;;;;;;24.90;12.95;;;;;;;;;;4926262;29;20405;-65
2023/01/01 03:53:53;;;;;;;24.20;13.95;;;;;;;;;;4925917;29;20510;-65
2023/01/01 03:56:36;;;;;;;21.75;13.23;;;;;;;;;;4940652;28;20055;-66
2023/01/01 03:59:14;;;;;;;25.98;14.43;;;;;;;;;;4954643;28;20052;-65
2023/01/01 04:01:46;;;;;;;25.50;14.18;;;;;;;;;;4925665;28;20980;-67
2023/01/01 04:04:13;;;;;;;27.40;14.35;;;;;;;;;;4925580;29;20420;-65
2023/01/01 04:06:39;;;;;;;24.92;14.48;;;;;;;;;;4939970;28;20945;-67
2023/01/01 04:09:11;;;;;;;23.08;13.93;;;;;;;;;;4925809;28;20059;-65
2023/01/01 04:14:33;;;;;;;26.27;14.73;;;;;;;;;;4925747;28;20754;-66
2023/01/01 04:17:00;;;;;;;24.60;14.48;;;;;;;;;;4939644;28;20047;-65
2023/01/01 04:19:25;;;;;;;26.85;15.25;;;;;;;;;;4925816;28;20130;-66
2023/01/01 04:21:50;;;;;;;30.42;15.40;;;;;;;;;;4926485;28;20106;-66
2023/01/01 04:24:16;;;;;;;24.70;14.32;;;;;;;;;;4926061;29;20072;-66
2023/01/01 04:26:42;;;;;;;26.23;14.52;;;;;;;;;;4924229;28;20544;-65
2023/01/01 04:29:08;;;;;;;28.13;15.85;;;;;;;;;;4924924;29;20044;-66
2023/01/01 04:31:34;;;;;;;25.45;14.98;;;;;;;;;;4925042;28;20051;-65
2023/01/01 04:34:00;;;;;;;28.70;16.30;;;;;;;;;;4924877;29;20071;-67
2023/01/01 04:36:26;;;;;;;30.70;16.15;;;;;;;;;;4923514;28;20674;-66
2023/01/01 04:38:52;;;;;;;24.35;15.82;;;;;;;;;;4924259;28;20051;-65
2023/01/01 04:41:17;;;;;;;31.73;15.50;;;;;;;;;;4925007;29;20111;-67
2023/01/01 04:43:49;;;;;;;24.88;15.63;;;;;;;;;;4925418;28;20059;-65
2023/01/01 04:46:15;;;;;;;30.20;15.55;;;;;;;;;;4925598;29;20059;-66
2023/01/01 04:48:41;;;;;;;21.58;13.60;;;;;;;;;;4923985;28;20488;-66
2023/01/01 04:51:07;;;;;;;24.98;15.32;;;;;;;;;;4926205;29;20524;-66
2023/01/01 04:53:34;;;;;;;27.30;15.25;;;;;;;;;;4924621;29;20126;-66
2023/01/01 04:56:07;;;;;;;21.48;13.13;;;;;;;;;;4925190;28;20079;-66
2023/01/01 04:58:34;;;;;;;20.98;12.57;;;;;;;;;;4923587;28;20051;-66
2023/01/01 05:01:00;;;;;;;22.85;13.32;;;;;;;;;;4924867;28;20083;-65
2023/01/01 05:03:26;;;;;;;25.73;15.23;;;;;;;;;;4924292;29;20949;-65
2023/01/01 05:06:04;;;;;;;23.10;13.35;;;;;;;;;;4924718;29;20050;-66
2023/01/01 05:08:31;;;;;;;25.55;13.10;;;;;;;;;;4923497;28;20165;-66
2023/01/01 05:11:22;;;;;;;21.10;12.43;;;;;;;;;;4924337;28;20055;-65
2023/01/01 05:13:51;;;;;;;20.67;12.48;;;;;;;;;;4931404;28;20061;-67
2023/01/01 05:16:23;;;;;;;25.60;13.50;;;;;;;;;;4925463;29;20070;-66
2023/01/01 05:18:49;;;;;;;23.90;15.05;;;;;;;;;;4939334;28;20306;-63
2023/01/01 05:21:18;;;;;;;21.15;13.63;;;;;;;;;;4925520;28;20056;-65
2023/01/01 05:23:44;;;;;;;25.25;13.55;;;;;;;;;;4925778;29;20080;-64
2023/01/01 05:26:16;;;;;;;21.50;12.65;;;;;;;;;;4925947;28;20079;-65
2023/01/01 05:28:42;;;;;;;23.95;13.05;;;;;;;;;;4924412;29;20179;-65
2023/01/01 05:31:12;;;;;;;22.15;12.05;;;;;;;;;;4924713;28;20130;-66
2023/01/01 05:33:37;;;;;;;24.63;14.18;;;;;;;;;;4925226;28;20069;-66
2023/01/01 05:36:04;;;;;;;20.83;12.15;;;;;;;;;;4940250;28;20516;-66
2023/01/01 05:38:31;;;;;;;20.13;11.95;;;;;;;;;;4924467;28;20568;-66
2023/01/01 05:40:57;;;;;;;23.15;14.32;;;;;;;;;;4924879;28;20047;-65
2023/01/01 05:43:22;;;;;;;24.98;14.50;;;;;;;;;;4924258;28;20051;-65
2023/01/01 05:45:48;;;;;;;24.92;14.15;;;;;;;;;;4925062;29;20039;-64
2023/01/01 05:48:13;;;;;;;25.02;14.50;;;;;;;;;;4922336;28;20062;-65
2023/01/01 05:50:40;;;;;;;23.15;12.70;;;;;;;;;;4924105;28;20059;-64
2023/01/01 05:53:05;;;;;;;21.20;13.40;;;;;;;;;;4925064;28;20075;-65
2023/01/01 05:55:31;;;;;;;22.08;12.48;;;;;;;;;;4924072;28;20066;-65
2023/01/01 05:57:56;;;;;;;23.08;13.27;;;;;;;;;;4924762;29;20051;-65
2023/01/01 06:00:22;;;;;;;25.00;13.48;;;;;;;;;;4925113;28;20070;-65
2023/01/01 06:02:50;;;;;;;17.90;11.07;;;;;;;;;;4923980;28;20046;-67
2023/01/01 06:05:16;;;;;;;21.38;11.57;;;;;;;;;;4924001;28;20063;-65
2023/01/01 06:07:41;;;;;;;19.85;11.27;;;;;;;;;;4924434;28;20054;-65
2023/01/01 06:10:07;;;;;;;19.65;11.88;;;;;;;;;;4924982;28;20054;-64
2023/01/01 06:12:32;;;;;;;15.85;9.90;;;;;;;;;;4923845;28;20421;-65
2023/01/01 06:14:58;;;;;;;17.13;9.93;;;;;;;;;;4924324;28;20053;-65
2023/01/01 06:17:23;;;;;;;17.30;10.18;;;;;;;;;;4923257;29;20044;-66
2023/01/01 06:19:49;;;;;;;17.17;10.30;;;;;;;;;;4922861;29;20573;-65
2023/01/01 06:22:14;;;;;;;14.73;8.60;;;;;;;;;;4923929;28;20052;-66
2023/01/01 06:24:39;;;;;;;15.25;9.25;;;;;;;;;;4923722;28;20047;-65
2023/01/01 06:27:05;;;;;;;15.10;9.20;;;;;;;;;;4923159;28;20048;-66
2023/01/01 06:29:31;;;;;;;11.10;6.57;;;;;;;;;;4924288;29;20044;-66
2023/01/01 06:31:56;;;;;;;12.75;7.00;;;;;;;;;;4924177;28;20094;-64
2023/01/01 06:34:22;;;;;;;11.23;7.25;;;;;;;;;;4924648;28;20055;-64
2023/01/01 06:36:47;;;;;;;11.43;7.20;;;;;;;;;;4923250;28;20078;-65
2023/01/01 06:39:13;;;;;;;11.77;7.40;;;;;;;;;;4922714;28;20055;-64
2023/01/01 06:41:38;;;;;;;10.45;6.88;;;;;;;;;;4923004;28;20489;-65
2023/01/01 06:44:04;;;;;;;11.25;6.22;;;;;;;;;;4924242;28;20483;-64
2023/01/01 06:46:34;;;;;;;9.38;6.35;;;;;;;;;;4923049;29;20062;-65
2023/01/01 06:49:03;;;;;;;10.20;6.80;;;;;;;;;;4919208;29;20874;-64
2023/01/01 06:51:36;;;;;;;9.65;6.18;;;;;;;;;;4922963;29;20421;-64
2023/01/01 06:54:02;;;;;;;12.18;7.03;;;;;;;;;;4923618;28;20297;-64
2023/01/01 06:56:29;;;;;;;10.55;7.00;;;;;;;;;;4923664;29;20083;-64
2023/01/01 06:58:55;;;;;;;12.77;6.85;;;;;;;;;;4923180;28;20048;-65
2023/01/01 07:01:23;;;;;;;11.32;6.85;;;;;;;;;;4925478;28;20063;-65
2023/01/01 07:04:02;;;;;;;12.70;6.72;;;;;;;;;;4926727;29;20055;-64
2023/01/01 07:06:30;;;;;;;9.93;6.32;;;;;;;;;;4928280;28;20090;-64
2023/01/01 07:08:56;;;;;;;11.70;6.97;;;;;;;;;;4927975;28;20087;-66
2023/01/01 07:11:22;;;;;;;9.63;6.50;;;;;;;;;;4927429;28;20082;-65
2023/01/01 07:13:47;;;;;;;10.55;6.10;;;;;;;;;;4928271;28;20043;-65
2023/01/01 07:16:13;;;;;;;11.13;6.28;;;;;;;;;;4928977;29;20111;-65
2023/01/01 07:18:39;;;;;;;10.98;6.43;;;;;;;;;;4927671;28;20075;-65
2023/01/01 07:21:20;;;;;;;12.05;6.57;;;;;;;;;;4928609;29;20493;-66
2023/01/01 07:23:46;;;;;;;9.85;5.60;;;;;;;;;;4926051;28;20183;-63
2023/01/01 07:26:11;;;;;;;8.57;5.32;;;;;;;;;;4926688;29;20051;-63
2023/01/01 07:28:37;;;;;;;10.77;4.35;;;;;;;;;;4925430;28;20059;-67
2023/01/01 07:31:02;;;;;;;9.45;5.25;;;;;;;;;;4923933;28;20052;-68
2023/01/01 07:33:27;;;;;;;10.48;5.82;;;;;;;;;;4923384;29;20071;-67
2023/01/01 07:35:53;;;;;;;11.38;6.10;;;;;;;;;;4926923;28;20105;-67
2023/01/01 07:38:18;;;;;;;9.02;5.68;;;;;;;;;;4941016;28;20496;-68
2023/01/01 07:40:44;;;;;;;9.55;5.82;;;;;;;;;;4925615;28;20043;-67
2023/01/01 07:43:11;;;;;;;11.02;5.75;;;;;;;;;;4925801;29;20540;-67
2023/01/01 07:45:36;;;;;;;8.73;5.15;;;;;;;;;;4926214;29;20051;-67
2023/01/01 07:48:02;;;;;;;10.73;6.03;;;;;;;;;;4924054;28;20059;-67
2023/01/01 07:50:31;;;;;;;7.25;5.00;;;;;;;;;;4925057;29;20071;-67
2023/01/01 07:52:56;;;;;;;11.57;5.35;;;;;;;;;;4924238;28;20773;-67
2023/01/01 07:55:22;;;;;;;8.73;5.07;;;;;;;;;;4924740;29;20059;-68
2023/01/01 07:57:48;;;;;;;6.85;4.90;;;;;;;;;;4925105;28;20143;-67
2023/01/01 08:00:17;;;;;;;6.93;4.57;;;;;;;;;;4940122;28;20048;-67
2023/01/01 08:02:43;;;;;;;7.05;4.45;;;;;;;;;;4924531;29;20040;-69
2023/01/01 08:05:08;;;;;;;6.78;4.43;;;;;;;;;;4925423;29;20051;-67
2023/01/01 08:07:34;;;;;;;4.90;3.92;;;;;;;;;;4925212;28;20576;-67
2023/01/01 08:10:00;;;;;;;6.57;4.65;;;;;;;;;;4925053;28;20107;-68
2023/01/01 08:12:26;;;;;;;8.40;4.60;;;;;;;;;;4925146;29;20047;-68
2023/01/01 08:14:51;;;;;;;6.60;4.55;;;;;;;;;;4925426;28;20063;-68
2023/01/01 08:17:17;;;;;;;5.20;3.92;;;;;;;;;;4923846;28;20055;-68
2023/01/01 08:19:43;;;;;;;6.55;4.07;;;;;;;;;;4924306;28;20122;-68
2023/01/01 08:22:09;;;;;;;6.35;4.32;;;;;;;;;;4924609;28;20130;-68
2023/01/01 08:24:35;;;;;;;5.32;4.35;;;;;;;;;;4924417;28;20075;-68
2023/01/01 08:27:01;;;;;;;4.10;3.70;;;;;;;;;;4925146;29;20063;-68
2023/01/01 08:29:26;;;;;;;5.20;3.53;;;;;;;;;;4923589;28;20091;-69
2023/01/01 08:31:52;;;;;;;5.72;3.63;;;;;;;;;;4921577;28;20154;-69
2023/01/01 08:34:17;;;;;;;8.13;3.80;;;;;;;;;;4916402;28;20072;-69
2023/01/01 08:36:42;;;;;;;5.32;4.05;;;;;;;;;;4920924;28;20134;-69
2023/01/01 08:39:08;;;;;;;5.97;3.75;;;;;;;;;;4921450;28;20047;-69
2023/01/01 08:41:34;;;;;;;6.38;4.18;;;;;;;;;;4922193;28;20812;-69
2023/01/01 08:44:00;;;;;;;8.60;3.90;;;;;;;;;;4922839;28;20052;-68
2023/01/01 08:46:26;;;;;;;6.57;4.57;;;;;;;;;;4922329;28;20047;-69
2023/01/01 08:48:51;;;;;;;5.93;4.07;;;;;;;;;;4921064;28;20060;-69
2023/01/01 08:51:17;;;;;;;6.00;4.10;;;;;;;;;;4922069;29;20508;-69
2023/01/01 08:53:42;;;;;;;6.50;4.50;;;;;;;;;;4922833;28;20048;-69
2023/01/01 08:56:10;;;;;;;8.10;4.43;;;;;;;;;;4923286;29;20536;-69
2023/01/01 08:58:37;;;;;;;5.82;4.30;;;;;;;;;;4920693;28;20047;-69
2023/01/01 09:01:04;;;;;;;7.93;4.20;;;;;;;;;;4919902;28;20059;-69
2023/01/01 09:03:29;;;;;;;4.25;3.50;;;;;;;;;;4921817;29;20064;-69
2023/01/01 09:05:55;;;;;;;6.40;4.10;;;;;;;;;;4937423;28;20054;-69
2023/01/01 09:08:21;;;;;;;6.72;4.10;;;;;;;;;;4921859;28;20062;-69
2023/01/01 09:10:47;;;;;;;3.85;3.45;;;;;;;;;;4922322;28;20492;-69
2023/01/01 09:13:15;;;;;;;3.67;3.28;;;;;;;;;;4921578;28;20572;-69
2023/01/01 09:15:42;;;;;;;4.35;3.20;;;;;;;;;;4922107;28;20052;-69
2023/01/01 09:18:08;;;;;;;4.18;3.20;;;;;;;;;;4921195;29;20051;-69
2023/01/01 09:20:34;;;;;;;3.97;3.58;;;;;;;;;;4921257;28;20060;-69
2023/01/01 09:22:59;;;;;;;5.03;3.22;;;;;;;;;;4920953;28;20116;-69
2023/01/01 09:25:25;;;;;;;7.05;3.55;;;;;;;;;;4920303;28;20051;-69
2023/01/01 09:27:59;;;;;;;4.43;3.22;;;;;;;;;;4922648;28;20054;-69
2023/01/01 09:30:25;;;;;;;4.45;3.25;;;;;;;;;;4920990;28;20047;-69
2023/01/01 09:32:51;;;;;;;4.88;3.28;;;;;;;;;;4919112;28;20435;-69
2023/01/01 09:35:16;;;;;;;4.80;3.33;;;;;;;;;;4921410;28;20047;-69
2023/01/01 09:37:42;;;;;;;4.15;3.40;;;;;;;;;;4922500;29;20055;-69
2023/01/01 09:40:34;;;;;;;5.18;3.67;;;;;;;;;;4921634;29;20047;-69
2023/01/01 09:43:13;;;;;;;4.00;3.20;;;;;;;;;;4939569;28;20051;-69
2023/01/01 09:45:50;;;;;;;4.10;3.35;;;;;;;;;;4946219;28;20055;-69
2023/01/01 09:48:16;;;;;;;5.00;3.53;;;;;;;;;;4942026;28;20050;-68
2023/01/01 09:50:44;;;;;;;4.50;3.25;;;;;;;;;;4941633;28;20387;-69
2023/01/01 09:53:16;;;;;;;3.92;3.22;;;;;;;;;;4942491;28;20737;-69
2023/01/01 09:56:02;;;;;;;3.88;3.45;;;;;;;;;;4943698;28;20508;-68
2023/01/01 09:58:32;;;;;;;4.63;3.40;;;;;;;;;;4943652;28;20484;-67
2023/01/01 10:01:08;;;;;;;5.45;3.45;;;;;;;;;;4959397;28;20053;-67
2023/01/01 10:03:36;;;;;;;5.18;3.08;;;;;;;;;;4944525;28;20892;-68
2023/01/01 10:06:07;;;;;;;4.32;3.03;;;;;;;;;;4944744;28;20163;-68
2023/01/01 10:08:39;;;;;;;4.05;2.85;;;;;;;;;;4956284;28;20133;-68
2023/01/01 10:11:30;;;;;;;4.40;2.92;;;;;;;;;;4943547;28;20059;-69
2023/01/01 10:13:58;;;;;;;2.88;2.67;;;;;;;;;;4943958;28;20059;-68
2023/01/01 10:16:38;;;;;;;5.22;2.67;;;;;;;;;;4944275;28;20154;-68
2023/01/01 10:19:25;;;;;;;3.83;3.13;;;;;;;;;;4952578;28;20055;-68
2023/01/01 10:21:54;;;;;;;2.50;2.30;;;;;;;;;;4940076;28;20055;-68
2023/01/01 10:24:33;;;;;;;2.13;1.92;;;;;;;;;;4944742;28;20106;-67
2023/01/01 10:27:03;;;;;;;3.10;2.28;;;;;;;;;;4944185;28;20047;-68
2023/01/01 10:29:39;;;;;;;2.75;1.90;;;;;;;;;;4943125;28;20055;-67
2023/01/01 10:32:17;;;;;;;2.20;1.80;;;;;;;;;;4944646;28;20155;-67
2023/01/01 10:34:43;;;;;;;4.32;1.70;;;;;;;;;;4946507;28;20047;-67
2023/01/01 10:37:09;;;;;;;4.00;2.10;;;;;;;;;;4944199;28;20043;-67
2023/01/01 10:39:35;;;;;;;3.05;2.47;;;;;;;;;;4945038;28;20078;-68
2023/01/01 10:42:02;;;;;;;3.83;3.35;;;;;;;;;;4947384;28;20488;-69
2023/01/01 10:44:33;;;;;;;4.20;2.95;;;;;;;;;;4946150;28;20055;-67
2023/01/01 10:47:16;;;;;;;3.40;3.08;;;;;;;;;;4946275;28;20055;-67
2023/01/01 10:49:58;;;;;;;3.58;2.67;;;;;;;;;;4944715;28;20043;-68
2023/01/01 10:52:29;;;;;;;6.22;3.20;;;;;;;;;;4945202;28;20654;-68
2023/01/01 10:54:54;;;;;;;14.30;5.60;;;;;;;;;;4945288;28;20058;-68
2023/01/01 10:57:26;;;;;;;8.55;6.25;;;;;;;;;;4946307;28;20039;-68
2023/01/01 10:59:52;;;;;;;11.45;6.95;;;;;;;;;;4945565;28;20500;-68
2023/01/01 11:02:26;;;;;;;9.07;5.63;;;;;;;;;;4931496;28;20040;-68
2023/01/01 11:05:11;;;;;;;5.50;4.40;;;;;;;;;;4926156;28;20102;-68
2023/01/01 11:07:40;;;;;;;6.70;4.88;;;;;;;;;;4928030;28;20043;-68
2023/01/01 11:10:13;;;;;;;5.57;4.40;;;;;;;;;;4928088;28;20047;-67
2023/01/01 11:12:42;;;;;;;6.40;4.40;;;;;;;;;;4926680;29;20052;-68
2023/01/01 11:15:19;;;;;;;5.85;4.25;;;;;;;;;;4928283;28;20055;-69
2023/01/01 11:17:44;;;;;;;5.53;3.67;;;;;;;;;;4943447;29;20058;-67
2023/01/01 11:20:18;;;;;;;5.68;3.47;;;;;;;;;;4927662;28;20135;-67
2023/01/01 11:22:49;;;;;;;4.40;3.35;;;;;;;;;;4927210;28;20074;-67
2023/01/01 11:25:17;;;;;;;4.63;3.33;;;;;;;;;;4927747;29;20044;-67
2023/01/01 11:27:42;;;;;;;4.50;3.15;;;;;;;;;;4941163;28;20064;-67
2023/01/01 11:30:25;;;;;;;5.85;3.60;;;;;;;;;;4926839;29;20078;-68
2023/01/01 11:32:56;;;;;;;4.72;3.55;;;;;;;;;;4925404;28;20107;-67
2023/01/01 11:35:24;;;;;;;6.85;3.72;;;;;;;;;;4925765;29;20047;-68
2023/01/01 11:37:52;;;;;;;4.88;3.33;;;;;;;;;;4927648;29;20194;-68
2023/01/01 11:40:24;;;;;;;4.28;3.53;;;;;;;;;;4927153;28;20052;-68
2023/01/01 11:42:53;;;;;;;4.70;3.45;;;;;;;;;;4926776;29;20115;-68
2023/01/01 11:45:22;;;;;;;4.47;3.45;;;;;;;;;;4926499;28;20060;-67
2023/01/01 11:47:57;;;;;;;4.25;3.40;;;;;;;;;;4919714;29;20075;-68
2023/01/01 11:50:40;;;;;;;5.10;2.92;;;;;;;;;;4941186;28;20043;-67
2023/01/01 11:53:21;;;;;;;6.20;3.30;;;;;;;;;;4947621;28;20054;-68
2023/01/01 11:56:02;;;;;;;4.05;3.05;;;;;;;;;;4927303;28;20071;-68
2023/01/01 11:58:47;;;;;;;6.35;3.10;;;;;;;;;;4926389;28;20052;-67
2023/01/01 12:01:26;;;;;;;4.32;2.88;;;;;;;;;;4924574;29;20082;-67
2023/01/01 12:04:10;;;;;;;4.07;2.63;;;;;;;;;;4927206;28;20071;-67
2023/01/01 12:06:46;;;;;;;3.58;2.72;;;;;;;;;;4926767;28;20056;-67
2023/01/01 12:09:32;;;;;;;3.75;2.47;;;;;;;;;;4925830;29;20146;-68
2023/01/01 12:12:04;;;;;;;2.92;2.63;;;;;;;;;;4926632;28;20134;-67
2023/01/01 12:14:45;;;;;;;5.03;3.30;;;;;;;;;;4926532;28;20159;-67
2023/01/01 12:17:18;;;;;;;3.78;3.05;;;;;;;;;;4937501;28;20051;-68
2023/01/01 12:20:03;;;;;;;3.15;2.83;;;;;;;;;;4925079;29;20039;-68
2023/01/01 12:22:29;;;;;;;3.75;2.97;;;;;;;;;;4925549;28;20335;-67
2023/01/01 12:24:55;;;;;;;5.88;3.17;;;;;;;;;;4925248;28;20992;-67
2023/01/01 12:27:30;;;;;;;3.80;3.00;;;;;;;;;;4925107;28;20093;-68
2023/01/01 12:30:13;;;;;;;3.83;2.85;;;;;;;;;;4925280;29;20564;-68
2023/01/01 12:33:07;;;;;;;4.70;2.60;;;;;;;;;;4926435;28;20051;-67
2023/01/01 12:35:43;;;;;;;2.67;2.17;;;;;;;;;;4926712;28;20055;-68
2023/01/01 12:38:36;;;;;;;2.50;2.20;;;;;;;;;;4927366;28;20083;-68
2023/01/01 12:41:12;;;;;;;2.40;1.95;;;;;;;;;;4924874;29;20047;-67
2023/01/01 12:44:01;;;;;;;2.50;1.73;;;;;;;;;;4924700;28;20062;-67
2023/01/01 12:46:41;;;;;;;2.38;1.90;;;;;;;;;;4926106;28;20047;-67
2023/01/01 12:49:25;;;;;;;2.38;1.58;;;;;;;;;;4952383;28;20048;-68
2023/01/01 12:52:15;;;;;;;1.85;1.50;;;;;;;;;;4923338;29;20055;-67
2023/01/01 12:55:03;;;;;;;2.08;1.58;;;;;;;;;;4942736;28;20486;-67
2023/01/01 12:57:50;;;;;;;3.13;1.90;;;;;;;;;;4945368;28;20419;-67
2023/01/01 13:00:19;;;;;;;3.38;1.90;;;;;;;;;;4936170;28;20047;-67
2023/01/01 13:03:06;;;;;;;1.83;1.63;;;;;;;;;;4944983;28;20126;-67
2023/01/01 13:05:44;;;;;;;2.58;1.80;;;;;;;;;;4945034;28;20051;-68
2023/01/01 13:08:10;;;;;;;3.42;1.88;;;;;;;;;;4945113;28;20077;-67
2023/01/01 13:10:39;;;;;;;2.28;1.80;;;;;;;;;;4944317;28;20065;-69
2023/01/01 13:13:05;;;;;;;3.55;2.00;;;;;;;;;;4945231;28;20055;-67
2023/01/01 13:15:36;;;;;;;2.38;1.85;;;;;;;;;;4945025;28;20043;-69
2023/01/01 13:18:06;;;;;;;6.32;2.00;;;;;;;;;;4942933;28;20047;-69
2023/01/01 13:20:35;;;;;;;6.40;2.20;;;;;;;;;;4942439;28;20059;-69
2023/01/01 13:23:01;;;;;;;1.95;1.67;;;;;;;;;;4922549;29;20191;-68
2023/01/01 13:25:26;;;;;;;2.35;1.95;;;;;;;;;;4924070;28;20142;-68
2023/01/01 13:27:54;;;;;;;2.50;1.88;;;;;;;;;;4923776;29;20525;-69
2023/01/01 13:30:40;;;;;;;3.42;2.05;;;;;;;;;;4923632;29;20974;-69
2023/01/01 13:33:29;;;;;;;2.20;2.00;;;;;;;;;;4919429;29;20179;-68
2023/01/01 13:36:21;;;;;;;2.50;1.90;;;;;;;;;;4922116;29;20035;-68
2023/01/01 13:38:51;;;;;;;2.55;1.63;;;;;;;;;;4918471;28;20047;-68
2023/01/01 13:41:35;;;;;;;2.03;1.40;;;;;;;;;;4923498;28;20055;-70
2023/01/01 13:44:02;;;;;;;2.35;1.65;;;;;;;;;;4923481;29;20059;-68
2023/01/01 13:46:42;;;;;;;2.90;1.60;;;;;;;;;;4921559;29;20043;-68
2023/01/01 13:49:40;;;;;;;2.63;1.80;;;;;;;;;;4939114;29;20109;-68
2023/01/01 13:52:44;;;;;;;1.58;1.40;;;;;;;;;;4939270;28;20050;-68
2023/01/01 13:55:44;;;;;;;2.13;1.75;;;;;;;;;;4958267;28;20054;-69
2023/01/01 13:58:34;;;;;;;2.35;1.48;;;;;;;;;;4937498;28;20047;-68
2023/01/01 14:01:17;;;;;;;3.83;1.75;;;;;;;;;;4940532;28;20051;-68
2023/01/01 14:03:48;;;;;;;4.80;1.80;;;;;;;;;;4940271;28;20059;-69
2023/01/01 14:06:28;;;;;;;1.85;1.70;;;;;;;;;;4940077;28;20523;-69
2023/01/01 14:09:21;;;;;;;2.22;1.63;;;;;;;;;;4939305;28;21097;-69
2023/01/01 14:11:47;;;;;;;2.30;1.42;;;;;;;;;;4938996;28;20186;-68
2023/01/01 14:14:27;;;;;;;4.38;1.70;;;;;;;;;;4938171;28;20142;-69
2023/01/01 14:16:59;;;;;;;4.50;1.83;;;;;;;;;;4940692;28;20097;-70
2023/01/01 14:19:25;;;;;;;4.47;1.85;;;;;;;;;;4939026;28;20055;-71
2023/01/01 14:21:51;;;;;;;2.25;1.83;;;;;;;;;;4939082;28;20114;-69
2023/01/01 14:24:19;;;;;;;1.73;1.50;;;;;;;;;;4939224;28;20102;-69
2023/01/01 14:26:45;;;;;;;2.47;1.50;;;;;;;;;;4939941;28;20058;-70
2023/01/01 14:29:27;;;;;;;2.63;1.60;;;;;;;;;;4936374;28;20051;-70
2023/01/01 14:31:56;;;;;;;2.50;1.60;;;;;;;;;;4938207;28;20051;-70
2023/01/01 14:34:29;;;;;;;2.13;1.58;;;;;;;;;;4940597;28;20079;-70
2023/01/01 14:36:58;;;;;;;3.42;1.88;;;;;;;;;;4939687;28;20059;-69
2023/01/01 14:39:25;;;;;;;4.50;1.90;;;;;;;;;;4938675;28;20057;-70
2023/01/01 14:41:53;;;;;;;4.65;2.03;;;;;;;;;;4939558;28;20051;-70
2023/01/01 14:44:23;;;;;;;3.83;1.85;;;;;;;;;;4933354;28;20047;-70
2023/01/01 14:46:51;;;;;;;5.45;1.80;;;;;;;;;;4939902;28;20054;-70
2023/01/01 14:49:36;;;;;;;2.30;1.90;;;;;;;;;;4939900;28;20059;-70
2023/01/01 14:52:07;;;;;;;2.28;1.80;;;;;;;;;;4940457;28;20536;-70
2023/01/01 14:54:40;;;;;;;2.63;2.10;;;;;;;;;;4941618;28;20047;-70
2023/01/01 14:57:11;;;;;;;11.98;2.10;;;;;;;;;;4946306;28;20055;-70